Blair, Oklahoma
Current Conditions -  °F | °C
As of 11:15 AM on Sunday 23 Nov 2014 (Local Time) from KAXS Reporting Station
Clear Clear  
Wind Chill: 62°   Ceiling: Unl
Heat Index: 62°   Visibility: 10mi
Dew Point: 40°   Wind: 17mph
Humidity: 45%   Direction: 290°WNW
Pressure: 29.44"   Gusts: 29mph
Location:  34.78°N, 99.34°W
Report Text: KAXS 231715Z AUTO 29015G25KT 10SM CLR 17/04 A2944 RMK AO2 T01650044
Loading
Personal Weather Stations






























Interactive Weather Map New forecast layout! Learn more

10-Day Weather Forecast

Advertisements
Track Severe Weather on mobile